Aeroporto :
LOGIN :

Iscrizione | Disclaimer

   EN    FR    IT 

 










Sommario :    VFR   VFR Marginale   IFR   IFR Intensivo   IFR Molto Intensivo
Visibilità : 
Base nubi : 
>= 8 km
>= 3000ft
5 / 8 km
1000 / 3000 ft
1500m / 5 km
500 / 1000 ft
800 / 1500m
200 / 500 ft
< 800m
< 200 ft
Simboli :   Temporali  Nebbia  Neve Forte  Precipitazioni Forti  Vento > 20 kt
SIGMETs :   Varie  Temporali  Ghiacco  Turbolenza  Onda orograficha  Ceneri Vulcaniche






- Altitudine del aeroporto : 12 ft
- Codice IATA : NCE


LFMN - Nice

ULTIMO METAR :
  • 180100Z 33008KT 9999 FEW070 BKN110 16/12 Q1018 NOSIG

METARs OBSOLETI :
  • 180030Z 32008KT 9999 FEW070 BKN110 16/13 Q1018 NOSIG
  • 180000Z 33009KT 9999 FEW060 16/13 Q1019 NOSIG
  • 172330Z 33007KT 9999 FEW060 16/13 Q1019 NOSIG
  • 172300Z 33009KT 9999 FEW060 16/13 Q1018 NOSIG
  • 172230Z 33007KT 9999 FEW060 16/13 Q1019 NOSIG

TAF TAF LFMN
Valido dal 17 a 21 ore il 19 a 03 ore UTC


172000Z 1721/1903 34010KT 9999 FEW060
PROB30
TEMPO 1804/1807 BKN014
BECMG 1808/1810 18010KT
BECMG 1818/1820 34010KT BKN020
TEMPO 1820/1903 SHRA FEW030CB
PROB30
TEMPO 1820/1903 TSRA SCT030CB
ATIS : +33 4 93 17 21 16



MetMap, La meteo Aeronautica in un colpo d'occhio ! - Copyright ORBIFLY Dicembre 2007 - Disclaimer

ORBIFLY MET'MAP TEAM :

Programmazione e sviluppo : Alexandra Zaïnal
Concezione e sviluppo : Baudouin d'Aumeries
Co-Programmazione e sviluppo : Marc-Olivier Méhu
Supporto tecnico e logistico : Manuel Goepfert
Aiuto per la traduzione : Arnaldo La Scala

Contatto : metmap@orbifly.com




FONTI E CREDITI :

   NOAA